sensor_id;sensor_type;location;lat;lon;timestamp;pressure;altitude;pressure_sealevel;temperature;humidity
4528;BME280;62320;51.520;6.818;2023-04-04T00:02:49;102510.47;;;2.07;71.78
4528;BME280;62320;51.520;6.818;2023-04-04T00:12:50;102514.44;;;1.89;72.37
4528;BME280;62320;51.520;6.818;2023-04-04T00:22:52;102502.19;;;1.84;71.52
4528;BME280;62320;51.520;6.818;2023-04-04T00:32:53;102517.19;;;1.66;72.35
4528;BME280;62320;51.520;6.818;2023-04-04T00:42:56;102518.09;;;1.54;72.84
4528;BME280;62320;51.520;6.818;2023-04-04T00:53:00;102509.88;;;1.31;73.80
4528;BME280;62320;51.520;6.818;2023-04-04T01:03:02;102499.16;;;1.24;73.59
4528;BME280;62320;51.520;6.818;2023-04-04T01:13:06;102495.34;;;1.17;73.44
4528;BME280;62320;51.520;6.818;2023-04-04T01:23:08;102490.31;;;1.06;73.84
4528;BME280;62320;51.520;6.818;2023-04-04T01:33:21;102488.22;;;0.87;76.07
4528;BME280;62320;51.520;6.818;2023-04-04T01:43:26;102484.41;;;0.94;73.42
4528;BME280;62320;51.520;6.818;2023-04-04T01:53:27;102468.66;;;0.86;73.84
4528;BME280;62320;51.520;6.818;2023-04-04T02:03:29;102467.84;;;0.74;75.24
4528;BME280;62320;51.520;6.818;2023-04-04T02:13:30;102470.75;;;0.67;76.26
4528;BME280;62320;51.520;6.818;2023-04-04T02:23:32;102470.06;;;0.69;75.17
4528;BME280;62320;51.520;6.818;2023-04-04T02:33:34;102472.69;;;0.58;75.44
4528;BME280;62320;51.520;6.818;2023-04-04T02:43:35;102466.13;;;0.61;75.33
4528;BME280;62320;51.520;6.818;2023-04-04T02:53:37;102458.03;;;0.67;74.40
4528;BME280;62320;51.520;6.818;2023-04-04T03:03:38;102454.66;;;0.55;75.29
4528;BME280;62320;51.520;6.818;2023-04-04T03:13:40;102455.09;;;0.61;74.62
4528;BME280;62320;51.520;6.818;2023-04-04T03:23:41;102461.78;;;0.47;74.80
4528;BME280;62320;51.520;6.818;2023-04-04T03:33:43;102460.75;;;0.32;76.62
4528;BME280;62320;51.520;6.818;2023-04-04T03:43:45;102447.22;;;0.20;76.49
4528;BME280;62320;51.520;6.818;2023-04-04T03:53:46;102454.84;;;0.20;76.43
4528;BME280;62320;51.520;6.818;2023-04-04T04:03:47;102432.97;;;0.35;75.95
4528;BME280;62320;51.520;6.818;2023-04-04T04:13:49;102431.78;;;0.06;76.54
4528;BME280;62320;51.520;6.818;2023-04-04T04:23:51;102431.50;;;-0.11;81.80
4528;BME280;62320;51.520;6.818;2023-04-04T04:33:52;102435.28;;;-0.17;79.13
4528;BME280;62320;51.520;6.818;2023-04-04T04:43:56;102430.25;;;-0.04;78.07
4528;BME280;62320;51.520;6.818;2023-04-04T04:53:58;102421.56;;;-0.19;79.24
4528;BME280;62320;51.520;6.818;2023-04-04T05:03:59;102428.78;;;-0.25;80.11
4528;BME280;62320;51.520;6.818;2023-04-04T05:14:01;102431.78;;;-0.42;82.22
4528;BME280;62320;51.520;6.818;2023-04-04T05:24:03;102438.19;;;-0.36;81.00
4528;BME280;62320;51.520;6.818;2023-04-04T05:34:04;102453.63;;;-0.21;78.95
4528;BME280;62320;51.520;6.818;2023-04-04T05:44:08;102445.78;;;-0.24;80.41
4528;BME280;62320;51.520;6.818;2023-04-04T05:54:10;102439.75;;;-0.02;79.29
4528;BME280;62320;51.520;6.818;2023-04-04T06:04:11;102464.25;;;0.10;80.85
4528;BME280;62320;51.520;6.818;2023-04-04T06:14:13;102488.59;;;0.42;80.04
4528;BME280;62320;51.520;6.818;2023-04-04T06:24:15;102488.97;;;0.73;79.83
4528;BME280;62320;51.520;6.818;2023-04-04T06:34:17;102499.03;;;0.96;77.97
4528;BME280;62320;51.520;6.818;2023-04-04T06:44:18;102502.00;;;1.41;76.82
4528;BME280;62320;51.520;6.818;2023-04-04T06:54:19;102500.78;;;1.89;77.66
4528;BME280;62320;51.520;6.818;2023-04-04T07:04:21;102502.50;;;2.44;77.32
4528;BME280;62320;51.520;6.818;2023-04-04T07:14:22;102503.56;;;2.89;76.29
4528;BME280;62320;51.520;6.818;2023-04-04T07:24:26;102506.81;;;3.45;76.13
4528;BME280;62320;51.520;6.818;2023-04-04T07:34:27;102485.00;;;3.97;73.70
4528;BME280;62320;51.520;6.818;2023-04-04T07:44:29;102485.34;;;4.52;72.08
4528;BME280;62320;51.520;6.818;2023-04-04T07:54:31;102478.47;;;4.84;70.36
4528;BME280;62320;51.520;6.818;2023-04-04T08:04:32;102477.38;;;5.31;70.48
4528;BME280;62320;51.520;6.818;2023-04-04T08:14:34;102491.69;;;5.61;66.60
4528;BME280;62320;51.520;6.818;2023-04-04T08:24:35;102486.16;;;5.89;64.41
4528;BME280;62320;51.520;6.818;2023-04-04T08:34:37;102492.56;;;5.97;62.54
4528;BME280;62320;51.520;6.818;2023-04-04T08:44:40;102476.00;;;6.09;64.73
4528;BME280;62320;51.520;6.818;2023-04-04T08:54:44;102483.69;;;6.27;63.46
4528;BME280;62320;51.520;6.818;2023-04-04T09:04:47;102477.59;;;6.63;61.89
4528;BME280;62320;51.520;6.818;2023-04-04T09:15:05;102456.72;;;6.76;61.13
4528;BME280;62320;51.520;6.818;2023-04-04T09:25:07;102457.91;;;6.84;59.07
4528;BME280;62320;51.520;6.818;2023-04-04T09:35:10;102460.72;;;6.70;57.81
4528;BME280;62320;51.520;6.818;2023-04-04T09:45:14;102470.88;;;6.67;54.99
4528;BME280;62320;51.520;6.818;2023-04-04T09:55:34;102456.75;;;6.57;55.01
4528;BME280;62320;51.520;6.818;2023-04-04T10:05:36;102445.66;;;6.58;59.24
4528;BME280;62320;51.520;6.818;2023-04-04T10:15:41;102435.00;;;6.49;57.99
4528;BME280;62320;51.520;6.818;2023-04-04T10:25:44;102429.31;;;6.56;58.05
4528;BME280;62320;51.520;6.818;2023-04-04T10:35:50;102425.69;;;6.53;57.81
4528;BME280;62320;51.520;6.818;2023-04-04T10:46:01;102406.63;;;6.47;53.29
4528;BME280;62320;51.520;6.818;2023-04-04T10:56:07;102397.44;;;6.53;57.56
4528;BME280;62320;51.520;6.818;2023-04-04T11:06:15;102394.13;;;6.55;55.80
4528;BME280;62320;51.520;6.818;2023-04-04T11:16:16;102372.25;;;6.65;52.39
4528;BME280;62320;51.520;6.818;2023-04-04T11:46:37;102354.06;;;6.81;55.37
4528;BME280;62320;51.520;6.818;2023-04-04T11:56:41;102350.81;;;6.85;56.13
4528;BME280;62320;51.520;6.818;2023-04-04T12:06:49;102347.16;;;7.00;51.72
4528;BME280;62320;51.520;6.818;2023-04-04T12:16:54;102334.28;;;7.00;55.77
4528;BME280;62320;51.520;6.818;2023-04-04T12:26:57;102308.88;;;7.30;51.62
4528;BME280;62320;51.520;6.818;2023-04-04T12:37:00;102303.09;;;7.36;55.10
4528;BME280;62320;51.520;6.818;2023-04-04T12:47:04;102272.38;;;7.40;56.08
4528;BME280;62320;51.520;6.818;2023-04-04T12:57:06;102275.19;;;7.70;54.27
4528;BME280;62320;51.520;6.818;2023-04-04T13:07:35;102265.50;;;7.63;53.91
4528;BME280;62320;51.520;6.818;2023-04-04T13:17:48;102247.78;;;7.72;55.25
4528;BME280;62320;51.520;6.818;2023-04-04T13:27:50;102244.28;;;7.95;49.65
4528;BME280;62320;51.520;6.818;2023-04-04T13:37:51;102202.94;;;7.90;52.83
4528;BME280;62320;51.520;6.818;2023-04-04T13:47:53;102208.97;;;7.91;55.14
4528;BME280;62320;51.520;6.818;2023-04-04T13:57:55;102198.16;;;8.01;55.29
4528;BME280;62320;51.520;6.818;2023-04-04T14:07:56;102180.16;;;8.03;55.41
4528;BME280;62320;51.520;6.818;2023-04-04T14:17:58;102171.63;;;8.29;52.89
4528;BME280;62320;51.520;6.818;2023-04-04T14:27:59;102165.53;;;8.53;49.51
4528;BME280;62320;51.520;6.818;2023-04-04T14:38:02;102153.78;;;8.63;51.23
4528;BME280;62320;51.520;6.818;2023-04-04T14:48:04;102141.47;;;8.83;48.33
4528;BME280;62320;51.520;6.818;2023-04-04T14:58:06;102136.66;;;8.95;47.12
4528;BME280;62320;51.520;6.818;2023-04-04T15:08:07;102129.13;;;8.73;50.18
4528;BME280;62320;51.520;6.818;2023-04-04T15:18:09;102121.34;;;8.71;53.64
4528;BME280;62320;51.520;6.818;2023-04-04T15:28:10;102111.59;;;8.91;53.45
4528;BME280;62320;51.520;6.818;2023-04-04T15:38:11;102108.94;;;8.88;51.48
4528;BME280;62320;51.520;6.818;2023-04-04T15:48:13;102100.34;;;8.89;50.48
4528;BME280;62320;51.520;6.818;2023-04-04T15:58:14;102099.38;;;9.15;49.00
4528;BME280;62320;51.520;6.818;2023-04-04T16:08:16;102093.38;;;9.16;44.62
4528;BME280;62320;51.520;6.818;2023-04-04T16:18:18;102083.53;;;9.01;49.16
4528;BME280;62320;51.520;6.818;2023-04-04T16:28:19;102074.41;;;8.83;51.57
4528;BME280;62320;51.520;6.818;2023-04-04T16:38:21;102081.34;;;8.85;48.89
4528;BME280;62320;51.520;6.818;2023-04-04T16:48:23;102064.00;;;8.80;53.30
4528;BME280;62320;51.520;6.818;2023-04-04T16:58:24;102067.09;;;8.68;53.70
4528;BME280;62320;51.520;6.818;2023-04-04T17:08:26;102057.38;;;8.58;54.39
4528;BME280;62320;51.520;6.818;2023-04-04T17:18:28;102063.19;;;8.51;55.55
4528;BME280;62320;51.520;6.818;2023-04-04T17:28:29;102058.63;;;8.42;54.21
4528;BME280;62320;51.520;6.818;2023-04-04T17:38:31;102050.56;;;8.32;56.00
4528;BME280;62320;51.520;6.818;2023-04-04T17:48:32;102045.84;;;8.19;52.89
4528;BME280;62320;51.520;6.818;2023-04-04T17:58:37;102053.75;;;7.97;50.49
4528;BME280;62320;51.520;6.818;2023-04-04T18:08:39;102044.72;;;7.82;51.56
4528;BME280;62320;51.520;6.818;2023-04-04T18:18:41;102047.97;;;7.77;53.79
4528;BME280;62320;51.520;6.818;2023-04-04T18:28:43;102040.81;;;7.67;56.17
4528;BME280;62320;51.520;6.818;2023-04-04T18:38:44;102036.44;;;7.39;54.42
4528;BME280;62320;51.520;6.818;2023-04-04T18:48:47;102043.91;;;7.32;55.73
4528;BME280;62320;51.520;6.818;2023-04-04T18:58:48;102050.34;;;7.19;54.62
4528;BME280;62320;51.520;6.818;2023-04-04T19:08:50;102056.22;;;7.15;54.89
4528;BME280;62320;51.520;6.818;2023-04-04T19:18:54;102063.38;;;7.00;53.06
4528;BME280;62320;51.520;6.818;2023-04-04T19:28:57;102077.06;;;6.99;56.53
4528;BME280;62320;51.520;6.818;2023-04-04T19:38:58;102074.19;;;6.90;56.72
4528;BME280;62320;51.520;6.818;2023-04-04T19:49:01;102057.25;;;6.73;56.06
4528;BME280;62320;51.520;6.818;2023-04-04T20:09:50;102064.13;;;6.72;56.09
4528;BME280;62320;51.520;6.818;2023-04-04T20:19:52;102051.16;;;6.69;57.13
4528;BME280;62320;51.520;6.818;2023-04-04T20:29:54;102062.16;;;6.65;56.21
4528;BME280;62320;51.520;6.818;2023-04-04T20:39:56;102070.28;;;6.54;56.47
4528;BME280;62320;51.520;6.818;2023-04-04T20:49:59;102067.41;;;6.46;56.97
4528;BME280;62320;51.520;6.818;2023-04-04T21:00:00;102055.41;;;6.45;57.10
4528;BME280;62320;51.520;6.818;2023-04-04T21:10:24;102051.88;;;6.43;56.89
4528;BME280;62320;51.520;6.818;2023-04-04T21:30:45;102048.88;;;6.31;57.55
4528;BME280;62320;51.520;6.818;2023-04-04T21:40:46;102027.38;;;6.07;57.30
4528;BME280;62320;51.520;6.818;2023-04-04T21:50:49;102024.41;;;5.96;57.26
4528;BME280;62320;51.520;6.818;2023-04-04T22:00:50;102018.03;;;5.87;57.96
4528;BME280;62320;51.520;6.818;2023-04-04T22:10:52;102005.34;;;5.69;56.81
4528;BME280;62320;51.520;6.818;2023-04-04T22:20:53;102014.91;;;5.52;57.77
4528;BME280;62320;51.520;6.818;2023-04-04T22:31:04;102007.13;;;5.49;59.09
4528;BME280;62320;51.520;6.818;2023-04-04T22:41:06;102008.66;;;5.25;59.33
4528;BME280;62320;51.520;6.818;2023-04-04T22:51:07;102005.16;;;5.02;59.84
4528;BME280;62320;51.520;6.818;2023-04-04T23:01:09;101991.50;;;4.83;60.66
4528;BME280;62320;51.520;6.818;2023-04-04T23:11:10;101998.22;;;4.60;61.03
4528;BME280;62320;51.520;6.818;2023-04-04T23:21:12;101991.00;;;4.32;62.17
4528;BME280;62320;51.520;6.818;2023-04-04T23:31:13;101987.59;;;4.14;62.49
4528;BME280;62320;51.520;6.818;2023-04-04T23:41:16;101976.81;;;4.02;62.31
4528;BME280;62320;51.520;6.818;2023-04-04T23:51:18;101967.09;;;3.95;62.69
